Terminal Aerodrome Forecast
Issued by NWS

Home | Current Version | Previous Version | Text Only | Print | Product List | Glossary On
Versions: 1 2 3 4 5 6 7 8 9 10 11 12 13 14 15 16 17
000
FTUS43 KGRR 061136
TAFJXN
TAF
KJXN 061136Z 0612/0712 00000KT 6SM BR SKC
     FM061400 20012G20KT P6SM SKC
     FM070300 19007KT P6SM OVC250=

USA.gov is the U.S. government's official web portal to all federal, state and local government web resources and services.